createdAt,value
2019-02-15T00:00:25.125Z,58.06
2019-02-15T00:01:25.093Z,58.19
2019-02-15T00:02:25.088Z,58.16
2019-02-15T00:03:25.084Z,58.40
2019-02-15T00:04:25.070Z,57.98
2019-02-15T00:05:25.066Z,58.09
2019-02-15T00:06:25.042Z,57.98
2019-02-15T00:07:25.030Z,57.60
2019-02-15T00:08:25.019Z,58.42
2019-02-15T00:09:25.021Z,58.32
2019-02-15T00:10:25.007Z,58.22
2019-02-15T00:11:24.981Z,58.84
2019-02-15T00:12:25.953Z,58.63
2019-02-15T00:13:24.959Z,58.73
2019-02-15T00:14:24.956Z,58.42
2019-02-15T00:15:24.965Z,58.42
2019-02-15T00:16:24.934Z,58.42
2019-02-15T00:17:24.920Z,58.42
2019-02-15T00:18:24.916Z,58.42
2019-02-15T00:19:24.897Z,58.22
2019-02-15T00:20:24.909Z,58.73
2019-02-15T00:21:24.891Z,58.22
2019-02-15T00:22:24.860Z,58.97
2019-02-15T00:23:24.851Z,58.84
2019-02-15T00:24:24.845Z,58.84
2019-02-15T00:25:24.829Z,58.84
2019-02-15T00:26:24.824Z,58.53
2019-02-15T00:27:24.807Z,58.86
2019-02-15T00:28:24.789Z,58.63
2019-02-15T00:29:24.786Z,58.32
2019-02-15T00:30:24.768Z,58.45
2019-02-15T00:31:24.771Z,58.86
2019-02-15T00:32:24.748Z,58.35
2019-02-15T00:33:24.733Z,59.09
2019-02-15T00:34:24.726Z,59.38
2019-02-15T00:35:24.715Z,59.17
2019-02-15T00:36:24.707Z,59.17
2019-02-15T00:37:24.689Z,59.58
2019-02-15T00:38:24.691Z,59.48
2019-02-15T00:39:24.662Z,59.58
2019-02-15T00:40:24.655Z,59.56
2019-02-15T00:41:24.654Z,58.97
2019-02-15T00:42:24.639Z,58.86
2019-02-15T00:43:24.626Z,58.86
2019-02-15T00:44:24.614Z,58.86
2019-02-15T00:45:24.597Z,58.76
2019-02-15T00:46:24.608Z,58.86
2019-02-15T00:47:24.571Z,59.28
2019-02-15T00:48:24.558Z,58.45
2019-02-15T00:49:24.564Z,58.86
2019-02-15T00:50:24.535Z,58.86
2019-02-15T00:51:24.540Z,58.76
2019-02-15T00:52:32.357Z,58.76
2019-02-15T00:53:24.840Z,58.86
2019-02-15T00:54:24.830Z,58.86
2019-02-15T00:55:24.803Z,59.28
2019-02-15T00:56:24.854Z,58.86
2019-02-15T00:57:24.578Z,58.94
2019-02-15T00:58:24.753Z,59.07
2019-02-15T00:59:24.718Z,58.86
2019-02-15T01:00:24.792Z,58.84
2019-02-15T01:01:24.788Z,59.07
2019-02-15T01:02:24.695Z,58.86
2019-02-15T01:03:24.769Z,59.38
2019-02-15T01:04:24.696Z,59.07
2019-02-15T01:05:24.771Z,58.86
2019-02-15T01:06:24.673Z,59.07
2019-02-15T01:07:24.388Z,58.55
2019-02-15T01:08:24.640Z,58.65
2019-02-15T01:09:24.705Z,58.65
2019-02-15T01:10:24.642Z,58.45
2019-02-15T01:11:24.669Z,59.48
2019-02-15T01:12:24.633Z,58.89
2019-02-15T01:13:30.955Z,58.58
2019-02-15T01:14:25.599Z,59.09
2019-02-15T01:15:24.559Z,58.79
2019-02-15T01:16:24.605Z,58.69
2019-02-15T01:17:24.559Z,59.09
2019-02-15T01:18:24.262Z,59.51
2019-02-15T01:19:24.527Z,58.89
2019-02-15T01:20:24.518Z,59.09
2019-02-15T01:21:24.520Z,59.12
2019-02-15T01:22:24.500Z,59.30
2019-02-15T01:23:24.460Z,58.92
2019-02-15T01:24:24.500Z,59.44
2019-02-15T01:25:24.467Z,60.36
2019-02-15T01:26:24.425Z,59.30
2019-02-15T01:27:24.165Z,59.44
2019-02-15T01:28:24.134Z,59.51
2019-02-15T01:29:24.132Z,58.89
2019-02-15T01:30:24.085Z,59.20
2019-02-15T01:31:24.105Z,58.99
2019-02-15T01:32:24.112Z,58.89
2019-02-15T01:33:24.113Z,59.41
2019-02-15T01:34:24.039Z,59.20
2019-02-15T01:35:24.033Z,59.30
2019-02-15T01:36:24.088Z,59.41
2019-02-15T01:37:24.024Z,59.72
2019-02-15T01:38:24.312Z,59.72
2019-02-15T01:39:24.307Z,59.09
2019-02-15T01:40:23.997Z,59.20
2019-02-15T01:41:24.307Z,59.72
2019-02-15T01:42:24.245Z,59.09
2019-02-15T01:43:24.306Z,59.20
2019-02-15T01:44:24.256Z,59.41
2019-02-15T01:45:23.944Z,58.79
2019-02-15T01:46:24.262Z,58.99
2019-02-15T01:47:24.193Z,59.20
2019-02-15T01:48:24.287Z,58.89
2019-02-15T01:49:24.227Z,58.89
2019-02-15T01:50:24.136Z,58.79
2019-02-15T01:51:24.213Z,59.51
2019-02-15T01:52:24.183Z,59.20
2019-02-15T01:53:24.127Z,59.12
2019-02-15T01:54:24.151Z,59.02
2019-02-15T01:55:24.135Z,59.33
2019-02-15T01:56:24.118Z,59.44
2019-02-15T01:57:24.021Z,59.44
2019-02-15T01:58:23.792Z,59.12
2019-02-15T01:59:24.087Z,59.12
2019-02-15T02:00:24.088Z,59.53
2019-02-15T02:01:24.014Z,59.12
2019-02-15T02:02:24.048Z,59.44
2019-02-15T02:03:24.065Z,59.12
2019-02-15T02:04:24.037Z,59.74
2019-02-15T02:05:24.015Z,59.74
2019-02-15T02:06:24.013Z,59.12
2019-02-15T02:07:24.005Z,59.95
2019-02-15T02:08:23.991Z,59.44
2019-02-15T02:09:23.993Z,59.12
2019-02-15T02:10:23.960Z,59.44
2019-02-15T02:11:23.880Z,59.44
2019-02-15T02:12:23.629Z,59.64
2019-02-15T02:13:23.892Z,59.53
2019-02-15T02:14:23.892Z,59.53
2019-02-15T02:15:23.943Z,59.33
2019-02-15T02:16:23.844Z,59.84
2019-02-15T02:17:23.907Z,59.44
2019-02-15T02:18:23.883Z,59.23
2019-02-15T02:19:23.856Z,59.44
2019-02-15T02:20:23.838Z,59.53
2019-02-15T02:21:23.848Z,59.12
2019-02-15T02:22:23.817Z,59.53
2019-02-15T02:23:23.837Z,59.84
2019-02-15T02:24:23.863Z,59.74
2019-02-15T02:25:23.811Z,59.23
2019-02-15T02:26:23.832Z,59.23
2019-02-15T02:27:23.767Z,59.23
2019-02-15T02:28:23.446Z,59.12
2019-02-15T02:29:23.720Z,59.12
2019-02-15T02:30:23.744Z,59.51
2019-02-15T02:31:23.717Z,59.12
2019-02-15T02:32:23.714Z,59.02
2019-02-15T02:33:23.679Z,59.02
2019-02-15T02:34:23.681Z,59.12
2019-02-15T02:35:23.706Z,59.12
2019-02-15T02:36:23.639Z,59.44
2019-02-15T02:37:23.627Z,59.33
2019-02-15T02:38:23.665Z,58.71
2019-02-15T02:39:23.694Z,59.02
2019-02-15T02:40:23.667Z,59.53
2019-02-15T02:41:23.299Z,59.23
2019-02-15T02:42:23.599Z,58.92
2019-02-15T02:43:23.572Z,59.02
2019-02-15T02:44:23.547Z,58.81
2019-02-15T02:45:23.556Z,58.71
2019-02-15T02:46:23.485Z,58.50
2019-02-15T02:47:23.551Z,58.81
2019-02-15T02:48:23.519Z,58.43
2019-02-15T02:49:23.498Z,58.94
2019-02-15T02:50:23.466Z,58.74
2019-02-15T02:51:23.502Z,58.92
2019-02-15T02:52:23.494Z,58.84
2019-02-15T02:53:23.497Z,58.74
2019-02-15T02:54:23.470Z,59.56
2019-02-15T02:55:23.523Z,59.46
2019-02-15T02:56:23.434Z,59.67
2019-02-15T02:57:23.366Z,59.15
2019-02-15T02:58:23.376Z,59.49
2019-02-15T02:59:23.427Z,59.28
2019-02-15T03:00:32.914Z,59.25
2019-02-15T03:01:24.382Z,59.25
2019-02-15T03:02:23.064Z,59.15
2019-02-15T03:03:23.363Z,59.15
2019-02-15T03:04:23.392Z,59.25
2019-02-15T03:05:23.353Z,59.25
2019-02-15T03:06:23.319Z,59.15
2019-02-15T03:07:23.373Z,59.18
2019-02-15T03:08:23.328Z,59.25
2019-02-15T03:09:23.307Z,59.98
2019-02-15T03:10:23.325Z,59.15
2019-02-15T03:11:23.244Z,59.56
2019-02-15T03:12:23.270Z,59.25
2019-02-15T03:13:23.239Z,59.05
2019-02-15T03:14:23.221Z,59.56
2019-02-15T03:15:22.953Z,59.05
2019-02-15T03:16:23.232Z,59.15
2019-02-15T03:17:23.176Z,58.94
2019-02-15T03:18:23.177Z,59.15
2019-02-15T03:19:23.171Z,59.25
2019-02-15T03:20:30.816Z,59.46
2019-02-15T03:21:24.165Z,59.46
2019-02-15T03:22:23.130Z,59.67
2019-02-15T03:23:23.108Z,59.46
2019-02-15T03:24:23.117Z,59.25
2019-02-15T03:25:23.096Z,59.59
2019-02-15T03:26:23.123Z,59.49
2019-02-15T03:27:23.099Z,59.18
2019-02-15T03:28:23.038Z,59.49
2019-02-15T03:29:23.041Z,60.11
2019-02-15T03:30:23.041Z,60.11
2019-02-15T03:31:23.032Z,59.39
2019-02-15T03:32:22.988Z,59.18
2019-02-15T03:33:22.702Z,59.59
2019-02-15T03:34:23.006Z,59.59
2019-02-15T03:35:22.965Z,59.28
2019-02-15T03:36:23.003Z,59.59
2019-02-15T03:37:22.976Z,59.18
2019-02-15T03:38:22.995Z,59.08
2019-02-15T03:39:22.928Z,59.59
2019-02-15T03:40:22.937Z,59.18
2019-02-15T03:41:22.957Z,59.93
2019-02-15T03:42:22.927Z,59.93
2019-02-15T03:43:22.819Z,60.03
2019-02-15T03:44:22.961Z,60.24
2019-02-15T03:45:22.801Z,60.44
2019-02-15T03:46:22.870Z,60.34
2019-02-15T03:47:22.877Z,60.24
2019-02-15T03:48:22.792Z,60.44
2019-02-15T03:49:22.850Z,59.93
2019-02-15T03:50:22.847Z,60.34
2019-02-15T03:51:22.817Z,60.44
2019-02-15T03:52:22.792Z,60.31
2019-02-15T03:53:22.509Z,59.52
2019-02-15T03:54:22.715Z,59.52
2019-02-15T03:55:22.745Z,59.41
2019-02-15T03:56:22.754Z,59.93
2019-02-15T03:57:22.731Z,60.44
2019-02-15T03:58:22.716Z,59.31
2019-02-15T03:59:22.692Z,59.62
2019-02-15T04:00:22.716Z,59.31
2019-02-15T04:01:22.685Z,59.62
2019-02-15T04:02:22.748Z,59.31
2019-02-15T04:03:22.682Z,59.10
2019-02-15T04:04:22.634Z,59.62
2019-02-15T04:05:22.643Z,60.55
2019-02-15T04:06:22.637Z,59.10
2019-02-15T04:07:22.598Z,60.14
2019-02-15T04:08:22.600Z,60.65
2019-02-15T04:09:22.630Z,60.31
2019-02-15T04:10:22.604Z,60.42
2019-02-15T04:11:22.847Z,59.90
2019-02-15T04:12:22.570Z,59.52
2019-02-15T04:13:22.573Z,59.72
2019-02-15T04:14:32.282Z,59.52
2019-02-15T04:15:23.523Z,59.49
2019-02-15T04:16:22.789Z,59.83
2019-02-15T04:17:22.505Z,59.52
2019-02-15T04:18:22.576Z,59.52
2019-02-15T04:19:22.479Z,60.27
2019-02-15T04:20:22.457Z,60.55
2019-02-15T04:21:22.436Z,60.14
2019-02-15T04:22:22.451Z,60.83
2019-02-15T04:23:22.374Z,60.34
2019-02-15T04:24:22.417Z,59.52
2019-02-15T04:25:22.370Z,59.49
2019-02-15T04:26:22.429Z,59.20
2019-02-15T04:27:22.098Z,59.31
2019-02-15T04:28:22.383Z,59.31
2019-02-15T04:29:22.396Z,60.34
2019-02-15T04:30:22.363Z,60.24
2019-02-15T04:31:22.352Z,60.21
2019-02-15T04:32:22.350Z,59.39
2019-02-15T04:33:22.310Z,59.90
2019-02-15T04:34:22.250Z,59.31
2019-02-15T04:35:22.358Z,59.18
2019-02-15T04:36:22.347Z,59.28
2019-02-15T04:37:22.268Z,59.31
2019-02-15T04:38:22.256Z,59.49
2019-02-15T04:39:22.294Z,59.59
2019-02-15T04:40:22.226Z,59.49
2019-02-15T04:41:22.227Z,59.49
2019-02-15T04:42:22.244Z,59.18
2019-02-15T04:43:22.230Z,59.31
2019-02-15T04:44:22.209Z,59.62
2019-02-15T04:45:21.882Z,59.49
2019-02-15T04:46:22.202Z,59.49
2019-02-15T04:47:22.177Z,59.18
2019-02-15T04:48:22.213Z,59.62
2019-02-15T04:49:22.125Z,59.31
2019-02-15T04:50:22.149Z,59.93
2019-02-15T04:51:22.060Z,59.52
2019-02-15T04:52:22.124Z,59.49
2019-02-15T04:53:22.113Z,59.72
2019-02-15T04:54:22.048Z,59.41
2019-02-15T04:55:22.079Z,59.28
2019-02-15T04:56:22.100Z,59.52
2019-02-15T04:57:22.069Z,59.18
2019-02-15T04:58:21.985Z,59.41
2019-02-15T04:59:22.047Z,59.31
2019-02-15T05:00:22.023Z,59.28
2019-02-15T05:01:22.030Z,59.69
2019-02-15T05:02:21.982Z,59.28
2019-02-15T05:03:21.957Z,59.41
2019-02-15T05:04:21.664Z,59.49
2019-02-15T05:05:21.931Z,59.39
2019-02-15T05:06:21.943Z,59.31
2019-02-15T05:07:21.966Z,59.62
2019-02-15T05:08:21.962Z,59.23
2019-02-15T05:09:23.798Z,59.31
2019-02-15T05:10:21.929Z,59.62
2019-02-15T05:11:21.932Z,59.34
2019-02-15T05:12:21.821Z,59.34
2019-02-15T05:13:21.861Z,59.95
2019-02-15T05:14:21.843Z,60.68
2019-02-15T05:15:21.849Z,60.89
2019-02-15T05:16:21.830Z,61.30
2019-02-15T05:17:21.838Z,60.89
2019-02-15T05:18:21.792Z,60.47
2019-02-15T05:19:21.808Z,60.78
2019-02-15T05:20:21.798Z,60.99
2019-02-15T05:21:21.761Z,60.58
2019-02-15T05:22:21.754Z,60.78
2019-02-15T05:23:21.465Z,60.68
2019-02-15T05:24:21.748Z,61.10
2019-02-15T05:25:21.714Z,60.78
2019-02-15T05:26:21.715Z,60.86
2019-02-15T05:27:21.860Z,60.65
2019-02-15T05:28:21.743Z,60.55
2019-02-15T05:29:21.642Z,61.10
2019-02-15T05:30:21.637Z,60.78
2019-02-15T05:31:21.601Z,60.68
2019-02-15T05:32:21.728Z,60.65
2019-02-15T05:33:21.624Z,60.47
2019-02-15T05:34:21.602Z,60.37
2019-02-15T05:35:21.618Z,60.55
2019-02-15T05:36:21.814Z,60.34
2019-02-15T05:37:21.600Z,59.52
2019-02-15T05:38:21.661Z,59.75
2019-02-15T05:39:21.610Z,59.95
2019-02-15T05:40:21.547Z,60.27
2019-02-15T05:41:21.594Z,61.10
2019-02-15T05:42:21.242Z,60.68
2019-02-15T05:43:21.545Z,61.10
2019-02-15T05:44:21.511Z,60.68
2019-02-15T05:45:21.478Z,60.47
2019-02-15T05:46:21.507Z,60.68
2019-02-15T05:47:21.499Z,60.47
2019-02-15T05:48:21.498Z,60.37
2019-02-15T05:49:21.465Z,60.37
2019-02-15T05:50:21.473Z,60.37
2019-02-15T05:51:21.448Z,60.06
2019-02-15T05:52:21.388Z,60.89
2019-02-15T05:53:21.453Z,60.37
2019-02-15T05:54:21.402Z,60.06
2019-02-15T05:55:21.363Z,60.16
2019-02-15T05:56:21.585Z,60.37
2019-02-15T05:57:21.380Z,59.85
2019-02-15T05:58:21.379Z,60.30
2019-02-15T05:59:21.347Z,60.53
2019-02-15T06:00:21.338Z,61.87
2019-02-15T06:01:21.300Z,61.69
2019-02-15T06:02:21.306Z,61.59
2019-02-15T06:03:21.287Z,62.42
2019-02-15T06:04:21.239Z,61.90
2019-02-15T06:05:21.274Z,62.84
2019-02-15T06:06:21.263Z,62.42
2019-02-15T06:07:21.269Z,62.52
2019-02-15T06:08:21.274Z,62.52
2019-02-15T06:09:21.239Z,62.08
2019-02-15T06:10:20.927Z,61.67
2019-02-15T06:11:21.215Z,61.69
2019-02-15T06:12:21.191Z,61.87
2019-02-15T06:13:21.181Z,61.77
2019-02-15T06:14:21.172Z,61.87
2019-02-15T06:15:21.158Z,61.87
2019-02-15T06:16:21.117Z,62.08
2019-02-15T06:17:21.109Z,62.08
2019-02-15T06:18:21.079Z,61.77
2019-02-15T06:19:21.137Z,61.80
2019-02-15T06:20:21.130Z,61.90
2019-02-15T06:21:21.084Z,62.42
2019-02-15T06:22:21.096Z,62.52
2019-02-15T06:23:21.056Z,62.97
2019-02-15T06:24:21.028Z,63.93
2019-02-15T06:25:21.041Z,63.82
2019-02-15T06:26:21.033Z,63.41
2019-02-15T06:27:21.017Z,63.62
2019-02-15T06:28:21.051Z,63.72
2019-02-15T06:29:20.950Z,63.90
2019-02-15T06:30:20.969Z,62.87
2019-02-15T06:31:20.956Z,62.97
2019-02-15T06:32:20.940Z,63.28
2019-02-15T06:33:20.975Z,62.87
2019-02-15T06:34:20.954Z,62.42
2019-02-15T06:35:20.954Z,62.42
2019-02-15T06:36:20.941Z,63.28
2019-02-15T06:37:20.857Z,62.97
2019-02-15T06:38:20.914Z,63.28
2019-02-15T06:39:20.897Z,63.38
2019-02-15T06:40:20.556Z,63.69
2019-02-15T06:41:20.543Z,63.38
2019-02-15T06:42:20.527Z,63.17
2019-02-15T06:43:20.549Z,63.51
2019-02-15T06:44:20.509Z,62.58
2019-02-15T06:45:24.763Z,63.44
2019-02-15T06:46:20.496Z,64.24
2019-02-15T06:47:20.474Z,64.76
2019-02-15T06:48:20.460Z,63.93
2019-02-15T06:49:20.457Z,64.97
2019-02-15T06:50:20.444Z,64.14
2019-02-15T06:51:20.429Z,64.14
2019-02-15T06:52:20.450Z,64.76
2019-02-15T06:53:20.413Z,63.82
2019-02-15T06:54:20.407Z,64.14
2019-02-15T06:55:20.439Z,63.93
2019-02-15T06:56:20.376Z,64.14
2019-02-15T06:57:20.367Z,64.97
2019-02-15T06:58:20.347Z,64.76
2019-02-15T06:59:20.363Z,64.76
2019-02-15T07:00:20.325Z,64.97
2019-02-15T07:01:20.318Z,63.51
2019-02-15T07:02:20.311Z,64.14
2019-02-15T07:03:20.307Z,64.45
2019-02-15T07:04:20.302Z,64.14
2019-02-15T07:05:20.281Z,64.14
2019-02-15T07:06:20.265Z,64.03
2019-02-15T07:07:20.271Z,64.73
2019-02-15T07:08:20.243Z,64.31
2019-02-15T07:09:20.244Z,64.00
2019-02-15T07:10:20.219Z,64.94
2019-02-15T07:11:20.209Z,64.24
2019-02-15T07:12:20.196Z,64.21
2019-02-15T07:13:20.182Z,64.39
2019-02-15T07:14:20.930Z,63.66
2019-02-15T07:15:20.157Z,63.56
2019-02-15T07:16:20.146Z,63.25
2019-02-15T07:17:20.140Z,63.87
2019-02-15T07:18:20.123Z,63.22
2019-02-15T07:19:27.511Z,62.70
2019-02-15T07:20:27.421Z,62.91
2019-02-15T07:21:27.403Z,62.16
2019-02-15T07:22:27.474Z,61.67
2019-02-15T07:23:20.371Z,62.05
2019-02-15T07:24:28.683Z,61.54
2019-02-15T07:25:20.410Z,62.16
2019-02-15T07:26:20.331Z,61.82
2019-02-15T07:27:20.323Z,62.75
2019-02-15T07:28:20.120Z,61.71
2019-02-15T07:29:27.384Z,61.30
2019-02-15T07:30:20.208Z,61.71
2019-02-15T07:31:20.029Z,61.89
2019-02-15T07:33:30.639Z,61.76
2019-02-15T07:34:30.598Z,62.07
2019-02-15T07:35:37.617Z,61.76
2019-02-15T07:36:37.842Z,59.25
2019-02-15T07:37:30.530Z,59.25
2019-02-15T07:38:30.530Z,59.56
2019-02-15T07:39:30.535Z,59.25
2019-02-15T07:40:30.404Z,59.05
2019-02-15T07:41:30.499Z,58.81
2019-02-15T07:42:30.211Z,58.30
2019-02-15T07:43:37.483Z,57.24
2019-02-15T07:44:38.783Z,57.86
2019-02-15T07:45:30.437Z,57.86
2019-02-15T07:46:30.274Z,57.83
2019-02-15T07:47:30.397Z,57.32
2019-02-15T07:48:30.397Z,57.70
2019-02-15T07:49:30.200Z,57.60
2019-02-15T07:50:38.463Z,56.13
2019-02-15T07:52:20.686Z,54.87
2019-02-15T07:53:27.645Z,54.56
2019-02-15T07:54:27.826Z,54.22
2019-02-15T07:55:27.635Z,53.89
2019-02-15T07:56:29.834Z,54.30
2019-02-15T07:59:45.111Z,53.30
2019-02-15T08:00:45.112Z,52.48
2019-02-15T08:01:52.087Z,52.17
2019-02-15T08:03:55.557Z,52.12
2019-02-15T08:06:04.577Z,50.46
2019-02-15T08:07:12.295Z,50.44
2019-02-15T08:08:11.501Z,49.29
2019-02-15T08:09:11.554Z,48.96
2019-02-15T08:10:12.098Z,48.75
2019-02-15T08:11:11.551Z,48.01
2019-02-15T08:12:13.130Z,47.50
2019-02-15T08:13:12.394Z,46.86
2019-02-15T08:14:14.767Z,47.07
2019-02-15T08:15:12.924Z,46.84
2019-02-15T08:16:11.457Z,47.05
2019-02-15T08:17:12.445Z,45.90
2019-02-15T08:18:04.322Z,46.08
2019-02-15T08:19:12.684Z,45.98
2019-02-15T08:20:04.546Z,45.35
2019-02-15T08:21:04.175Z,45.35
2019-02-15T08:22:04.182Z,43.38
2019-02-15T08:23:13.010Z,44.10
2019-02-15T08:24:12.915Z,44.18
2019-02-15T08:26:15.195Z,43.26
2019-02-15T08:27:14.897Z,43.55
2019-02-15T08:29:53.319Z,43.53
2019-02-15T08:30:53.295Z,42.61
2019-02-15T08:31:53.295Z,42.00
2019-02-15T08:32:53.290Z,42.21
2019-02-15T08:33:53.626Z,42.51
2019-02-15T08:34:53.209Z,41.88
2019-02-15T08:35:53.192Z,42.51
2019-02-15T08:36:53.020Z,41.80
2019-02-15T08:37:53.831Z,43.73
2019-02-15T08:38:53.168Z,43.43
2019-02-15T08:39:53.165Z,42.90
2019-02-15T08:40:52.886Z,41.57
2019-02-15T08:42:01.265Z,42.27
2019-02-15T08:42:55.850Z,41.66
2019-02-15T08:43:52.917Z,41.66
2019-02-15T08:44:52.826Z,41.35
2019-02-15T08:46:00.521Z,40.92
2019-02-15T08:46:53.799Z,41.13
2019-02-15T08:47:52.789Z,40.82
2019-02-15T08:49:00.097Z,40.72
2019-02-15T08:49:53.107Z,40.60
2019-02-15T08:50:53.016Z,40.60
2019-02-15T08:51:53.068Z,39.78
2019-02-15T08:52:54.986Z,39.58
2019-02-15T08:53:53.035Z,39.78
2019-02-15T08:54:52.922Z,40.91
2019-02-15T08:55:52.879Z,40.66
2019-02-15T08:56:52.721Z,40.36
2019-02-15T08:57:53.035Z,39.42
2019-02-15T08:58:52.706Z,38.18
2019-02-15T08:59:52.664Z,38.29
2019-02-15T09:00:52.660Z,37.98
2019-02-15T09:01:52.647Z,38.68
2019-02-15T09:02:52.636Z,37.54
2019-02-15T09:03:52.625Z,37.83
2019-02-15T09:04:52.600Z,36.47
2019-02-15T09:05:52.606Z,36.76
2019-02-15T09:06:52.571Z,35.95
2019-02-15T09:07:52.560Z,36.14
2019-02-15T09:08:52.565Z,34.50
2019-02-15T09:09:52.572Z,34.69
2019-02-15T09:10:52.540Z,34.08
2019-02-15T09:11:52.542Z,34.18
2019-02-15T09:12:52.513Z,33.97
2019-02-15T09:13:52.497Z,33.37
2019-02-15T09:14:52.490Z,33.78
2019-02-15T09:15:52.538Z,33.88
2019-02-15T09:16:52.473Z,34.59
2019-02-15T09:17:52.475Z,33.98
2019-02-15T09:18:52.443Z,34.18
2019-02-15T09:19:52.439Z,34.37
2019-02-15T09:20:52.436Z,33.46
2019-02-15T09:21:53.338Z,32.84
2019-02-15T09:22:52.414Z,32.13
2019-02-15T09:23:52.433Z,33.12
2019-02-15T09:24:52.376Z,32.23
2019-02-15T09:25:52.377Z,32.01
2019-02-15T09:26:52.368Z,32.11
2019-02-15T09:27:52.348Z,31.71
2019-02-15T09:28:52.352Z,31.91
2019-02-15T09:29:52.325Z,32.32
2019-02-15T09:30:52.326Z,32.64
2019-02-15T09:31:52.291Z,31.91
2019-02-15T09:32:52.288Z,32.21
2019-02-15T09:33:52.836Z,32.42
2019-02-15T09:34:52.262Z,31.71
2019-02-15T09:35:52.339Z,31.81
2019-02-15T09:36:52.247Z,32.13
2019-02-15T09:37:52.219Z,32.13
2019-02-15T09:38:52.897Z,32.92
2019-02-15T09:39:52.206Z,32.11
2019-02-15T09:40:52.194Z,30.60
2019-02-15T09:41:52.189Z,31.71
2019-02-15T09:42:52.214Z,31.41
2019-02-15T09:43:52.158Z,31.82
2019-02-15T09:44:52.158Z,31.32
2019-02-15T09:45:52.141Z,31.61
2019-02-15T09:46:59.510Z,31.61
2019-02-15T09:47:52.463Z,31.10
2019-02-15T09:48:52.346Z,31.29
2019-02-15T09:49:52.494Z,31.58
2019-02-15T09:50:52.397Z,31.07
2019-02-15T09:51:52.524Z,30.55
2019-02-15T09:52:52.438Z,30.55
2019-02-15T09:53:52.364Z,29.94
2019-02-15T09:54:52.421Z,30.04
2019-02-15T09:55:52.355Z,29.94
2019-02-15T09:56:52.306Z,31.65
2019-02-15T09:57:52.167Z,29.92
2019-02-15T09:58:52.275Z,29.50
2019-02-15T09:59:52.306Z,29.81
2019-02-15T10:00:52.158Z,28.99
2019-02-15T10:01:52.115Z,28.69
2019-02-15T10:02:51.982Z,29.39
2019-02-15T10:03:52.236Z,29.29
2019-02-15T10:04:52.255Z,28.77
2019-02-15T10:05:51.930Z,28.17
2019-02-15T10:06:51.943Z,27.97
2019-02-15T10:07:51.914Z,27.68
2019-02-15T10:08:51.880Z,28.58
2019-02-15T10:09:51.889Z,28.58
2019-02-15T10:10:51.851Z,28.18
2019-02-15T10:11:51.938Z,27.98
2019-02-15T10:12:51.847Z,27.98
2019-02-15T10:13:51.829Z,27.97
2019-02-15T10:14:51.876Z,28.47
2019-02-15T10:15:51.855Z,28.37
2019-02-15T10:16:51.872Z,27.87
2019-02-15T10:17:51.786Z,28.07
2019-02-15T10:18:51.791Z,28.17
2019-02-15T10:19:51.756Z,27.76
2019-02-15T10:20:51.807Z,28.36
2019-02-15T10:21:51.747Z,27.67
2019-02-15T10:22:51.802Z,27.05
2019-02-15T10:23:51.743Z,28.17
2019-02-15T10:24:51.733Z,27.76
2019-02-15T10:25:51.697Z,27.35
2019-02-15T10:26:51.705Z,27.36
2019-02-15T10:27:51.659Z,27.66
2019-02-15T10:28:51.667Z,26.95
2019-02-15T10:30:02.237Z,27.95
2019-02-15T10:30:51.981Z,27.05
2019-02-15T10:31:51.956Z,27.15
2019-02-15T10:32:51.929Z,26.86
2019-02-15T10:33:51.901Z,27.36
2019-02-15T10:34:51.773Z,27.78
2019-02-15T10:35:51.628Z,27.08
2019-02-15T10:36:51.944Z,27.28
2019-02-15T10:37:51.602Z,27.17
2019-02-15T10:38:51.561Z,27.68
2019-02-15T10:39:51.534Z,27.58
2019-02-15T10:40:51.543Z,27.78
2019-02-15T10:41:51.530Z,28.18
2019-02-15T10:42:51.495Z,27.58
2019-02-15T10:43:51.481Z,26.96
2019-02-15T10:44:51.471Z,28.07
2019-02-15T10:45:51.473Z,27.76
2019-02-15T10:46:51.489Z,27.76
2019-02-15T10:47:51.451Z,27.35
2019-02-15T10:48:51.442Z,27.86
2019-02-15T10:49:51.460Z,27.25
2019-02-15T10:50:51.418Z,27.86
2019-02-15T10:51:51.431Z,27.34
2019-02-15T10:52:51.402Z,27.14
2019-02-15T10:53:51.371Z,28.14
2019-02-15T10:54:51.370Z,26.53
2019-02-15T10:55:51.350Z,25.84
2019-02-15T10:56:51.340Z,27.36
2019-02-15T10:57:52.347Z,26.77
2019-02-15T10:58:51.311Z,27.29
2019-02-15T10:59:51.310Z,27.49
2019-02-15T11:00:51.887Z,26.68
2019-02-15T11:01:51.287Z,27.29
2019-02-15T11:02:51.279Z,26.79
2019-02-15T11:03:51.289Z,27.30
2019-02-15T11:04:51.242Z,26.99
2019-02-15T11:05:51.241Z,27.10
2019-02-15T11:06:51.218Z,26.79
2019-02-15T11:07:51.218Z,27.29
2019-02-15T11:08:51.206Z,27.29
2019-02-15T11:09:51.207Z,27.09
2019-02-15T11:10:51.202Z,26.68
2019-02-15T11:11:51.185Z,27.09
2019-02-15T11:12:51.183Z,27.08
2019-02-15T11:13:51.153Z,25.96
2019-02-15T11:14:51.130Z,26.07
2019-02-15T11:15:51.116Z,25.77
2019-02-15T11:16:51.111Z,25.77
2019-02-15T11:17:51.128Z,25.87
2019-02-15T11:18:51.102Z,26.39
2019-02-15T11:19:51.106Z,26.77
2019-02-15T11:20:51.063Z,25.26
2019-02-15T11:21:51.063Z,24.66
2019-02-15T11:22:51.061Z,25.15
2019-02-15T11:23:51.027Z,24.65
2019-02-15T11:24:51.064Z,23.84
2019-02-15T11:25:51.023Z,23.75
2019-02-15T11:26:50.994Z,23.25
2019-02-15T11:27:51.049Z,22.85
2019-02-15T11:28:51.002Z,22.55
2019-02-15T11:29:51.035Z,23.06
2019-02-15T11:30:50.970Z,23.26
2019-02-15T11:31:50.987Z,23.77
2019-02-15T11:32:50.949Z,22.36
2019-02-15T11:33:51.172Z,23.97
2019-02-15T11:34:59.268Z,23.46
2019-02-15T11:35:51.160Z,23.86
2019-02-15T11:36:51.210Z,22.86
2019-02-15T11:37:51.755Z,23.86
2019-02-15T11:38:51.517Z,23.57
2019-02-15T11:39:50.884Z,22.96
2019-02-15T11:40:59.211Z,24.07
2019-02-15T11:41:51.107Z,23.97
2019-02-15T11:42:51.074Z,23.36
2019-02-15T11:43:58.204Z,24.37
2019-02-15T11:44:51.062Z,24.07
2019-02-15T11:45:58.137Z,24.77
2019-02-15T11:46:56.767Z,25.27
2019-02-15T11:47:51.120Z,25.26
2019-02-15T11:48:50.788Z,24.16
2019-02-15T11:49:50.728Z,25.06
2019-02-15T11:50:50.733Z,24.36
2019-02-15T11:51:50.789Z,24.77
2019-02-15T11:52:51.505Z,24.86
2019-02-15T11:53:50.694Z,25.16
2019-02-15T11:54:50.675Z,26.79
2019-02-15T11:55:50.682Z,26.07
2019-02-15T11:59:12.305Z,25.27
2019-02-15T12:02:28.905Z,27.10
2019-02-15T12:03:20.887Z,25.99
2019-02-15T12:04:20.543Z,25.18
2019-02-15T12:05:21.181Z,24.58
2019-02-15T12:06:19.660Z,26.50
2019-02-15T12:07:20.229Z,27.42
2019-02-15T12:08:19.644Z,26.41
2019-02-15T12:09:19.617Z,26.91
2019-02-15T12:10:19.593Z,26.51
2019-02-15T12:11:19.620Z,26.41
2019-02-15T12:12:19.686Z,24.49
2019-02-15T12:13:19.592Z,25.10
2019-02-15T12:14:20.252Z,27.01
2019-02-15T12:15:19.582Z,24.69
2019-02-15T12:16:19.566Z,24.79
2019-02-15T12:17:20.285Z,26.32
2019-02-15T12:18:19.564Z,26.42
2019-02-15T12:19:19.536Z,25.62
2019-02-15T12:20:19.511Z,26.14
2019-02-15T12:21:19.530Z,27.14
2019-02-15T12:22:26.477Z,27.04
2019-02-15T12:23:19.460Z,26.93
2019-02-15T12:24:19.440Z,25.62
2019-02-15T12:25:19.424Z,25.54
2019-02-15T12:26:19.417Z,25.84
2019-02-15T12:27:19.401Z,24.43
2019-02-15T12:28:19.398Z,25.65
2019-02-15T12:29:19.377Z,26.97
2019-02-15T12:30:19.370Z,27.18
2019-02-15T12:31:19.379Z,27.97
2019-02-15T12:32:26.388Z,27.06
2019-02-15T12:33:19.361Z,27.36
2019-02-15T12:34:19.330Z,28.06
2019-02-15T12:35:19.315Z,27.95
2019-02-15T12:36:19.308Z,26.03
2019-02-15T12:37:19.288Z,25.02
2019-02-15T12:38:19.287Z,25.12
2019-02-15T12:39:19.280Z,24.32
2019-02-15T12:40:19.288Z,24.01
2019-02-15T12:41:19.242Z,23.92
2019-02-15T12:42:19.231Z,24.32
2019-02-15T12:43:19.253Z,24.43
2019-02-15T12:44:19.206Z,25.13
2019-02-15T12:45:19.212Z,25.94
2019-02-15T12:46:19.195Z,25.42
2019-02-15T12:47:19.187Z,24.62
2019-02-15T12:48:19.234Z,24.93
2019-02-15T12:49:19.217Z,25.03
2019-02-15T12:50:19.191Z,27.05
2019-02-15T12:51:19.167Z,25.32
2019-02-15T12:52:19.187Z,25.03
2019-02-15T12:53:19.195Z,26.14
2019-02-15T12:54:19.179Z,25.34
2019-02-15T12:55:19.150Z,24.22
2019-02-15T12:56:19.100Z,24.54
2019-02-15T12:57:19.835Z,25.75
2019-02-15T12:58:19.108Z,25.55
2019-02-15T12:59:19.127Z,24.84
2019-02-15T13:00:19.106Z,26.07
2019-02-15T13:01:19.020Z,25.95
2019-02-15T13:02:19.042Z,26.06
2019-02-15T13:03:19.825Z,26.66
2019-02-15T13:04:19.053Z,27.26
2019-02-15T13:05:18.995Z,27.08
2019-02-15T13:06:28.230Z,27.18